createdAt,value
2019-04-30T00:02:15.757Z,88.97
2019-04-30T00:04:48.745Z,88.88
2019-04-30T00:07:19.607Z,89.69
2019-04-30T00:09:53.903Z,89.23
2019-04-30T00:12:22.825Z,89.08
2019-04-30T00:14:55.050Z,89.12
2019-04-30T00:17:26.978Z,88.95
2019-04-30T00:19:59.850Z,89.09
2019-04-30T00:22:33.853Z,89.27
2019-04-30T00:25:02.164Z,89.29
2019-04-30T00:27:32.636Z,89.39
2019-04-30T00:30:08.932Z,89.37
2019-04-30T00:32:43.523Z,89.43
2019-04-30T00:35:11.755Z,89.75
2019-04-30T00:37:42.547Z,89.84
2019-04-30T00:40:15.367Z,89.83
2019-04-30T00:42:47.031Z,89.80
2019-04-30T00:45:18.707Z,89.88
2019-04-30T00:47:49.409Z,90.14
2019-04-30T00:50:19.885Z,90.16
2019-04-30T00:52:50.511Z,90.26
2019-04-30T00:55:21.125Z,90.19
2019-04-30T00:57:51.653Z,90.20
2019-04-30T01:00:28.068Z,90.25
2019-04-30T01:03:08.247Z,89.99
2019-04-30T01:05:39.574Z,89.94
2019-04-30T01:08:10.726Z,89.50
2019-04-30T01:10:41.234Z,89.23
2019-04-30T01:13:12.138Z,89.11
2019-04-30T01:15:48.033Z,89.23
2019-04-30T01:18:15.886Z,89.03
2019-04-30T01:20:46.517Z,89.05
2019-04-30T01:23:17.220Z,89.41
2019-04-30T01:25:51.306Z,89.36
2019-04-30T01:28:24.243Z,88.95
2019-04-30T01:30:53.858Z,89.00
2019-04-30T01:33:28.474Z,89.33
2019-04-30T01:35:59.675Z,88.85
2019-04-30T01:38:30.068Z,89.14
2019-04-30T01:41:00.541Z,89.27
2019-04-30T01:43:34.535Z,89.70
2019-04-30T01:46:12.212Z,89.50
2019-04-30T01:48:35.625Z,89.61
2019-04-30T01:51:06.396Z,89.13
2019-04-30T01:53:38.663Z,89.42
2019-04-30T01:56:14.245Z,89.25
2019-04-30T01:58:49.589Z,89.39
2019-04-30T02:01:21.683Z,89.48
2019-04-30T02:03:52.870Z,89.66
2019-04-30T02:06:23.557Z,89.55
2019-04-30T02:08:54.061Z,88.45
2019-04-30T02:11:24.648Z,88.40
2019-04-30T02:13:55.125Z,89.15
2019-04-30T02:16:28.790Z,89.00
2019-04-30T02:19:00.003Z,88.80
2019-04-30T02:21:33.214Z,89.39
2019-04-30T02:24:02.840Z,89.73
2019-04-30T02:26:33.337Z,89.37
2019-04-30T02:29:03.919Z,89.25
2019-04-30T02:31:34.569Z,89.96
2019-04-30T02:34:06.647Z,90.23
2019-04-30T02:36:40.382Z,89.34
2019-04-30T02:39:11.395Z,89.13
2019-04-30T02:41:42.276Z,88.82
2019-04-30T02:44:13.391Z,88.75
2019-04-30T02:46:50.416Z,88.98
2019-04-30T02:49:21.134Z,88.87
2019-04-30T02:51:53.670Z,89.01
2019-04-30T02:54:25.609Z,88.91
2019-04-30T02:56:59.659Z,89.16
2019-04-30T02:59:30.340Z,88.80
2019-04-30T03:02:01.890Z,88.41
2019-04-30T03:04:33.462Z,88.14
2019-04-30T03:07:03.999Z,88.18
2019-04-30T03:09:35.606Z,88.09
2019-04-30T03:12:08.674Z,88.49
2019-04-30T03:14:40.073Z,88.36
2019-04-30T03:17:20.900Z,88.80
2019-04-30T03:19:55.713Z,88.59
2019-04-30T03:22:31.212Z,88.41
2019-04-30T03:25:01.933Z,88.21
2019-04-30T03:27:32.439Z,88.20
2019-04-30T03:30:05.690Z,88.62
2019-04-30T03:32:37.270Z,88.53
2019-04-30T03:35:12.260Z,88.48
2019-04-30T03:37:42.714Z,88.03
2019-04-30T03:40:15.543Z,87.53
2019-04-30T03:42:46.147Z,87.67
2019-04-30T03:45:16.712Z,88.16
2019-04-30T03:47:50.230Z,88.23
2019-04-30T03:50:19.943Z,88.29
2019-04-30T03:52:51.520Z,88.20
2019-04-30T03:55:25.015Z,88.03
2019-04-30T03:57:55.200Z,87.32
2019-04-30T04:00:29.998Z,86.63
2019-04-30T04:03:00.538Z,87.77
2019-04-30T04:05:33.364Z,86.21
2019-04-30T04:08:05.518Z,87.13
2019-04-30T04:10:42.101Z,86.92
2019-04-30T04:13:12.618Z,87.04
2019-04-30T04:15:49.952Z,86.59
2019-04-30T04:18:20.844Z,87.21
2019-04-30T04:21:07.103Z,86.91
2019-04-30T04:23:23.751Z,85.85
2019-04-30T04:25:54.373Z,85.50
2019-04-30T04:28:26.071Z,85.29
2019-04-30T04:30:59.903Z,84.25
2019-04-30T04:33:29.670Z,85.50
2019-04-30T04:36:00.470Z,85.34
2019-04-30T04:38:31.223Z,85.06
2019-04-30T04:41:02.999Z,84.08
2019-04-30T04:43:33.832Z,84.20
2019-04-30T04:46:04.376Z,82.87
2019-04-30T04:48:34.944Z,81.99
2019-04-30T04:51:05.424Z,82.61
2019-04-30T04:53:37.044Z,82.51
2019-04-30T04:56:09.877Z,81.31
2019-04-30T04:58:40.311Z,78.03
2019-04-30T05:01:11.941Z,69.84
2019-04-30T05:03:42.640Z,65.75
2019-04-30T05:06:13.129Z,66.51
2019-04-30T05:08:44.700Z,63.02
2019-04-30T05:11:15.367Z,57.26
2019-04-30T05:13:45.961Z,54.88
2019-04-30T05:16:16.462Z,58.42
2019-04-30T05:18:48.658Z,60.76
2019-04-30T05:21:19.259Z,59.86
2019-04-30T05:23:49.825Z,59.06
2019-04-30T05:26:22.774Z,57.75
2019-04-30T05:28:52.969Z,54.12
2019-04-30T05:31:24.601Z,54.31
2019-04-30T05:33:55.165Z,57.50
2019-04-30T05:36:25.859Z,53.65
2019-04-30T05:38:56.267Z,55.07
2019-04-30T05:41:28.978Z,54.14
2019-04-30T05:43:59.741Z,59.77
2019-04-30T05:46:30.381Z,63.06
2019-04-30T05:49:02.094Z,66.02
2019-04-30T05:51:32.704Z,67.31
2019-04-30T05:54:03.237Z,68.98
2019-04-30T05:56:33.756Z,69.78
2019-04-30T05:59:06.332Z,70.25
2019-04-30T06:01:36.815Z,70.52
2019-04-30T06:04:07.323Z,69.76
2019-04-30T06:06:38.871Z,70.15
2019-04-30T06:09:18.755Z,69.53
2019-04-30T06:12:11.155Z,69.13
2019-04-30T06:14:53.149Z,68.91
2019-04-30T06:17:29.353Z,67.33
2019-04-30T06:20:00.044Z,66.96
2019-04-30T06:22:30.774Z,66.61
2019-04-30T06:25:01.307Z,65.06
2019-04-30T06:27:32.269Z,62.67
2019-04-30T06:30:04.025Z,61.27
2019-04-30T06:32:34.521Z,56.25
2019-04-30T06:35:05.948Z,52.15
2019-04-30T06:37:36.507Z,53.97
2019-04-30T06:40:07.029Z,52.34
2019-04-30T06:42:39.306Z,54.74
2019-04-30T06:45:10.093Z,53.25
2019-04-30T06:47:40.795Z,55.78
2019-04-30T06:50:11.560Z,56.53
2019-04-30T06:52:53.988Z,54.06
2019-04-30T06:55:14.496Z,52.65
2019-04-30T06:57:45.772Z,48.76
2019-04-30T07:00:16.608Z,48.16
2019-04-30T07:02:49.276Z,46.32
2019-04-30T07:05:19.208Z,40.71
2019-04-30T07:08:09.877Z,37.57
2019-04-30T07:10:41.428Z,42.29
2019-04-30T07:13:13.580Z,37.91
2019-04-30T07:15:44.352Z,45.09
2019-04-30T07:18:18.845Z,46.39
2019-04-30T07:20:49.235Z,46.00
2019-04-30T07:23:19.803Z,42.35
2019-04-30T07:25:51.712Z,44.29
2019-04-30T07:28:40.308Z,39.72
2019-04-30T07:31:10.189Z,41.25
2019-04-30T07:33:31.579Z,42.75
2019-04-30T07:36:03.066Z,42.31
2019-04-30T07:38:35.743Z,42.70
2019-04-30T07:41:06.028Z,40.77
2019-04-30T07:43:39.056Z,39.93
2019-04-30T07:46:09.573Z,41.31
2019-04-30T07:48:40.461Z,40.63
2019-04-30T07:51:11.681Z,41.08
2019-04-30T07:53:43.374Z,40.77
2019-04-30T07:56:25.743Z,40.37
2019-04-30T07:58:45.913Z,41.65
2019-04-30T08:01:16.500Z,40.70
2019-04-30T08:04:03.931Z,41.90
2019-04-30T08:06:34.689Z,44.12
2019-04-30T08:09:10.511Z,44.13
2019-04-30T08:11:46.184Z,45.45
2019-04-30T08:14:18.481Z,47.23
2019-04-30T08:16:51.132Z,46.40
2019-04-30T08:19:23.229Z,48.77
2019-04-30T08:21:53.840Z,47.98
2019-04-30T08:24:24.450Z,48.33
2019-04-30T08:26:55.296Z,48.39
2019-04-30T08:29:27.076Z,47.10
2019-04-30T08:31:59.377Z,50.63
2019-04-30T08:34:30.152Z,50.74
2019-04-30T08:37:12.944Z,50.07
2019-04-30T08:39:33.127Z,50.27
2019-04-30T08:42:03.593Z,50.09
2019-04-30T08:44:34.335Z,50.13
2019-04-30T08:47:05.821Z,50.27
2019-04-30T08:49:36.547Z,50.19
2019-04-30T08:52:07.311Z,50.76
2019-04-30T08:54:39.273Z,52.75
2019-04-30T08:57:09.875Z,52.49
2019-04-30T08:59:42.840Z,52.07
2019-04-30T09:02:16.373Z,52.11
2019-04-30T09:04:45.571Z,52.72
2019-04-30T09:07:19.738Z,52.07
2019-04-30T09:09:48.940Z,51.81
2019-04-30T09:12:19.753Z,51.10
2019-04-30T09:14:51.253Z,52.36
2019-04-30T09:17:22.888Z,53.56
2019-04-30T09:19:53.509Z,52.28
2019-04-30T09:22:24.201Z,53.28
2019-04-30T09:24:54.801Z,51.83
2019-04-30T09:27:25.549Z,52.45
2019-04-30T09:29:56.148Z,51.67
2019-04-30T09:32:26.712Z,51.08
2019-04-30T09:34:58.757Z,51.10
2019-04-30T09:37:30.620Z,52.37
2019-04-30T09:40:01.243Z,52.12
2019-04-30T09:42:31.827Z,53.65
2019-04-30T09:45:02.328Z,53.50
2019-04-30T09:47:33.913Z,53.39
2019-04-30T09:50:05.954Z,53.16
2019-04-30T09:52:39.273Z,53.76
2019-04-30T09:55:10.358Z,54.29
2019-04-30T09:57:41.965Z,54.50
2019-04-30T10:00:12.998Z,53.79
2019-04-30T10:02:43.565Z,53.51
2019-04-30T10:05:15.524Z,53.35
2019-04-30T10:07:46.361Z,53.13
2019-04-30T10:10:19.079Z,52.55
2019-04-30T10:12:49.556Z,53.00
2019-04-30T10:15:28.933Z,52.60
2019-04-30T10:17:59.765Z,51.71
2019-04-30T10:20:31.794Z,52.80
2019-04-30T10:23:02.358Z,52.39
2019-04-30T10:25:32.896Z,52.12
2019-04-30T10:28:04.805Z,52.40
2019-04-30T10:30:35.796Z,51.94
2019-04-30T10:33:09.800Z,51.04
2019-04-30T10:35:40.187Z,50.82
2019-04-30T10:38:12.618Z,51.03
2019-04-30T10:40:43.168Z,51.08
2019-04-30T10:43:13.718Z,51.40
2019-04-30T10:45:44.355Z,51.33
2019-04-30T10:48:16.027Z,51.91
2019-04-30T10:50:46.601Z,51.30
2019-04-30T10:53:17.166Z,52.37
2019-04-30T10:55:48.577Z,51.72
2019-04-30T10:58:19.312Z,51.33
2019-04-30T11:00:51.856Z,52.12
2019-04-30T11:03:23.196Z,51.43
2019-04-30T11:05:53.845Z,52.67
2019-04-30T11:08:24.340Z,52.07
2019-04-30T11:10:54.989Z,53.13
2019-04-30T11:13:25.557Z,52.11
2019-04-30T11:15:56.167Z,52.80
2019-04-30T11:18:26.958Z,52.53
2019-04-30T11:20:59.516Z,52.71
2019-04-30T11:23:32.597Z,52.87
2019-04-30T11:26:06.881Z,51.98
2019-04-30T11:28:38.114Z,52.74
2019-04-30T11:31:16.667Z,53.01
2019-04-30T11:33:47.759Z,52.58
2019-04-30T11:36:19.505Z,53.28
2019-04-30T11:38:50.231Z,53.39
2019-04-30T11:41:31.104Z,53.79
2019-04-30T11:43:55.204Z,54.06
2019-04-30T11:46:28.789Z,53.92
2019-04-30T11:48:59.429Z,53.84
2019-04-30T11:51:30.046Z,53.51
2019-04-30T11:54:00.562Z,53.86
2019-04-30T11:56:31.057Z,53.90
2019-04-30T11:59:01.553Z,53.93
2019-04-30T12:01:32.593Z,53.68
2019-04-30T12:04:03.258Z,53.83
2019-04-30T12:06:33.698Z,53.76
2019-04-30T12:09:12.756Z,54.41
2019-04-30T12:11:44.644Z,54.20
2019-04-30T12:14:16.167Z,53.26
2019-04-30T12:16:47.728Z,54.15
2019-04-30T12:19:18.911Z,54.28
2019-04-30T12:21:49.509Z,54.42
2019-04-30T12:24:20.062Z,53.92
2019-04-30T12:26:52.860Z,53.40
2019-04-30T12:29:23.352Z,54.15
2019-04-30T12:31:53.839Z,54.55
2019-04-30T12:34:24.531Z,54.82
2019-04-30T12:36:55.017Z,55.04
2019-04-30T12:39:25.417Z,54.51
2019-04-30T12:41:55.929Z,54.68
2019-04-30T12:44:26.349Z,54.87
2019-04-30T12:46:58.666Z,54.39
2019-04-30T12:49:30.474Z,54.69
2019-04-30T12:52:02.923Z,54.44
2019-04-30T12:54:47.508Z,53.63
2019-04-30T12:57:19.597Z,54.14
2019-04-30T12:59:50.200Z,54.79
2019-04-30T13:02:20.759Z,54.63
2019-04-30T13:04:52.414Z,56.27
2019-04-30T13:07:25.737Z,56.58
2019-04-30T13:10:00.334Z,55.40
2019-04-30T13:12:30.546Z,55.35
2019-04-30T13:15:01.577Z,55.68
2019-04-30T13:17:32.503Z,56.21
2019-04-30T13:20:03.089Z,55.98
2019-04-30T13:22:34.922Z,55.80
2019-04-30T13:25:05.759Z,55.68
2019-04-30T13:27:40.244Z,56.35
2019-04-30T13:30:20.527Z,56.25
2019-04-30T13:32:59.360Z,56.14
2019-04-30T13:35:29.997Z,55.80
2019-04-30T13:38:04.172Z,55.87
2019-04-30T13:40:53.398Z,55.71
2019-04-30T13:43:31.362Z,55.74
2019-04-30T13:46:08.512Z,55.50
2019-04-30T13:48:38.833Z,56.52
2019-04-30T13:51:09.369Z,56.52
2019-04-30T13:53:39.864Z,56.64
2019-04-30T13:56:10.392Z,56.62
2019-04-30T13:58:40.875Z,57.29
2019-04-30T14:01:11.397Z,57.39
2019-04-30T14:03:46.713Z,57.66
2019-04-30T14:06:19.074Z,57.60
2019-04-30T14:08:51.217Z,57.97
2019-04-30T14:11:21.945Z,58.53
2019-04-30T14:13:55.796Z,58.50
2019-04-30T14:16:26.961Z,58.63
2019-04-30T14:18:58.573Z,59.12
2019-04-30T14:21:34.703Z,60.44
2019-04-30T14:24:01.704Z,61.67
2019-04-30T14:26:32.428Z,61.10
2019-04-30T14:29:02.936Z,61.27
2019-04-30T14:31:33.493Z,61.25
2019-04-30T14:34:04.421Z,61.46
2019-04-30T14:36:34.952Z,61.63
2019-04-30T14:39:14.557Z,60.94
2019-04-30T14:41:42.970Z,61.27
2019-04-30T14:44:20.969Z,61.88
2019-04-30T14:47:00.723Z,62.10
2019-04-30T14:49:37.968Z,62.28
2019-04-30T14:52:09.354Z,62.59
2019-04-30T14:54:53.813Z,63.07
2019-04-30T14:57:42.522Z,63.00
2019-04-30T15:00:14.914Z,63.40
2019-04-30T15:02:50.040Z,63.67
2019-04-30T15:05:20.188Z,63.78
2019-04-30T15:07:50.641Z,63.66
2019-04-30T15:10:21.314Z,63.57
2019-04-30T15:12:52.088Z,63.98
2019-04-30T15:15:26.699Z,64.70
2019-04-30T15:17:59.196Z,64.87
2019-04-30T15:20:30.538Z,65.67
2019-04-30T15:23:05.621Z,66.20
2019-04-30T15:25:36.104Z,65.96
2019-04-30T15:28:07.189Z,65.80
2019-04-30T15:30:44.895Z,65.93
2019-04-30T15:33:22.895Z,67.45
2019-04-30T15:35:53.493Z,68.42
2019-04-30T15:38:25.745Z,69.50
2019-04-30T15:40:56.385Z,70.09
2019-04-30T15:43:26.972Z,71.24
2019-04-30T15:45:57.591Z,71.53
2019-04-30T15:48:28.130Z,71.08
2019-04-30T15:50:59.103Z,71.63
2019-04-30T15:53:30.783Z,72.36
2019-04-30T15:56:04.786Z,72.53
2019-04-30T15:58:38.881Z,73.18
2019-04-30T16:01:11.040Z,73.14
2019-04-30T16:03:43.156Z,74.21
2019-04-30T16:09:00.215Z,74.47
2019-04-30T16:11:34.442Z,75.02
2019-04-30T16:14:23.141Z,74.97
2019-04-30T16:16:57.241Z,74.93
2019-04-30T16:19:28.836Z,74.33
2019-04-30T16:22:00.748Z,74.56
2019-04-30T16:24:31.892Z,74.76
2019-04-30T16:27:02.358Z,74.19
2019-04-30T16:29:33.117Z,74.38
2019-04-30T16:32:05.730Z,73.85
2019-04-30T16:34:36.218Z,73.65
2019-04-30T16:37:06.760Z,73.94
2019-04-30T16:39:37.243Z,74.36
2019-04-30T16:42:09.152Z,73.76
2019-04-30T16:44:39.709Z,74.12
2019-04-30T16:47:14.464Z,73.95
2019-04-30T16:49:42.460Z,73.63
2019-04-30T16:52:12.875Z,73.62
2019-04-30T16:54:45.404Z,73.06
2019-04-30T16:57:16.950Z,72.50
2019-04-30T16:59:48.094Z,72.91
2019-04-30T17:02:23.216Z,72.86
2019-04-30T17:04:59.301Z,73.08
2019-04-30T17:07:44.373Z,73.51
2019-04-30T17:10:18.724Z,74.50
2019-04-30T17:12:59.330Z,74.74
2019-04-30T17:15:38.452Z,74.28
2019-04-30T17:18:11.862Z,74.73
2019-04-30T17:20:41.572Z,74.75
2019-04-30T17:23:12.108Z,74.94
2019-04-30T17:25:42.881Z,75.04
2019-04-30T17:28:13.374Z,75.34
2019-04-30T17:30:43.899Z,75.87
2019-04-30T17:33:14.652Z,75.24
2019-04-30T17:35:47.541Z,76.03
2019-04-30T17:38:18.083Z,76.38
2019-04-30T17:40:49.706Z,76.49
2019-04-30T17:43:20.371Z,76.70
2019-04-30T17:45:51.916Z,77.42
2019-04-30T17:48:22.416Z,77.33
2019-04-30T17:50:53.022Z,77.47
2019-04-30T17:53:25.538Z,77.23
2019-04-30T17:55:56.070Z,77.64
2019-04-30T17:58:26.634Z,77.43
2019-04-30T18:00:59.782Z,77.81
2019-04-30T18:03:30.330Z,77.95
2019-04-30T18:06:02.011Z,77.38
2019-04-30T18:08:32.549Z,77.91
2019-04-30T18:11:03.175Z,78.45
2019-04-30T18:13:34.659Z,79.20
2019-04-30T18:16:05.250Z,79.04
2019-04-30T18:18:37.325Z,79.44
2019-04-30T18:21:28.540Z,79.73
2019-04-30T18:24:17.212Z,79.54
2019-04-30T18:26:53.389Z,80.22
2019-04-30T18:29:24.812Z,80.70
2019-04-30T18:31:55.328Z,81.35
2019-04-30T18:34:26.040Z,81.27
2019-04-30T18:36:59.210Z,82.20
2019-04-30T18:39:29.244Z,82.96
2019-04-30T18:42:00.766Z,83.10
2019-04-30T18:44:32.507Z,83.33
2019-04-30T18:47:02.988Z,83.13
2019-04-30T18:49:33.546Z,83.04
2019-04-30T18:52:03.997Z,83.07
2019-04-30T18:54:34.419Z,83.36
2019-04-30T18:57:04.889Z,83.64
2019-04-30T18:59:35.350Z,83.78
2019-04-30T19:02:08.369Z,83.72
2019-04-30T19:04:40.890Z,83.72
2019-04-30T19:07:14.152Z,83.54
2019-04-30T19:09:46.190Z,83.83
2019-04-30T19:12:24.023Z,84.12
2019-04-30T19:15:05.063Z,84.15
2019-04-30T19:17:56.234Z,83.37
2019-04-30T19:20:28.724Z,83.43
2019-04-30T19:22:59.332Z,83.52
2019-04-30T19:25:29.875Z,83.70
2019-04-30T19:28:11.361Z,83.86
2019-04-30T19:30:32.622Z,83.89
2019-04-30T19:33:04.069Z,83.87
2019-04-30T19:35:34.536Z,84.05
2019-04-30T19:38:05.030Z,84.14
2019-04-30T19:40:41.209Z,83.97
2019-04-30T19:43:11.718Z,83.72
2019-04-30T19:45:42.195Z,84.06
2019-04-30T19:48:12.662Z,84.34
2019-04-30T19:50:43.164Z,84.52
2019-04-30T19:53:14.690Z,84.36
2019-04-30T19:55:45.229Z,84.54
2019-04-30T19:58:26.238Z,84.21
2019-04-30T20:00:49.735Z,84.17
2019-04-30T20:03:19.955Z,84.49
2019-04-30T20:05:50.380Z,84.57
2019-04-30T20:08:20.857Z,84.88
2019-04-30T20:10:51.321Z,84.89
2019-04-30T20:13:31.332Z,84.88
2019-04-30T20:15:54.027Z,84.83
2019-04-30T20:18:24.503Z,84.65
2019-04-30T20:20:56.541Z,84.80
2019-04-30T20:23:27.060Z,84.92
2019-04-30T20:25:57.544Z,85.26
2019-04-30T20:28:38.523Z,84.90
2019-04-30T20:31:00.233Z,84.78
2019-04-30T20:33:30.730Z,84.83
2019-04-30T20:36:01.106Z,84.87
2019-04-30T20:38:33.168Z,84.87
2019-04-30T20:41:05.256Z,85.03
2019-04-30T20:43:35.693Z,84.99
2019-04-30T20:46:08.606Z,85.11
2019-04-30T20:48:41.101Z,84.56
2019-04-30T20:51:12.474Z,84.75
2019-04-30T20:53:42.963Z,84.48
2019-04-30T20:56:13.432Z,84.84
2019-04-30T20:58:54.970Z,84.30
2019-04-30T21:01:15.976Z,84.13
2019-04-30T21:03:46.436Z,83.90
2019-04-30T21:06:19.718Z,84.39
2019-04-30T21:08:51.131Z,85.00
2019-04-30T21:11:21.585Z,84.83
2019-04-30T21:13:52.069Z,84.69
2019-04-30T21:16:22.523Z,84.86
2019-04-30T21:18:52.958Z,85.07
2019-04-30T21:21:23.494Z,84.78
2019-04-30T21:23:55.525Z,84.20
2019-04-30T21:26:25.969Z,84.24
2019-04-30T21:29:00.827Z,84.64
2019-04-30T21:31:30.146Z,84.80
2019-04-30T21:34:11.650Z,84.19
2019-04-30T21:36:42.344Z,84.52
2019-04-30T21:39:12.802Z,84.04
2019-04-30T21:41:43.295Z,84.24
2019-04-30T21:44:13.784Z,84.14
2019-04-30T21:46:45.293Z,84.22
2019-04-30T21:49:15.823Z,84.80
2019-04-30T21:51:47.279Z,85.02
2019-04-30T21:54:18.753Z,85.20
2019-04-30T21:56:49.238Z,85.38
2019-04-30T21:59:24.433Z,85.54
2019-04-30T22:01:51.755Z,85.87
2019-04-30T22:04:23.217Z,86.06
2019-04-30T22:06:54.789Z,85.77
2019-04-30T22:09:25.314Z,85.66
2019-04-30T22:11:55.867Z,85.67
2019-04-30T22:14:26.412Z,85.55
2019-04-30T22:16:59.393Z,85.91
2019-04-30T22:19:30.999Z,85.67
2019-04-30T22:22:01.472Z,85.84
2019-04-30T22:24:31.949Z,86.14
2019-04-30T22:27:02.428Z,86.20
2019-04-30T22:29:39.230Z,85.97
2019-04-30T22:32:05.153Z,85.80
2019-04-30T22:34:36.682Z,85.97
2019-04-30T22:37:08.557Z,86.21
2019-04-30T22:39:40.703Z,86.07
2019-04-30T22:42:21.896Z,86.46
2019-04-30T22:44:52.292Z,86.63
2019-04-30T22:47:22.910Z,87.21
2019-04-30T22:49:53.306Z,87.04
2019-04-30T22:52:24.819Z,87.08
2019-04-30T22:54:55.196Z,87.14
2019-04-30T22:57:25.677Z,87.08
2019-04-30T22:59:56.072Z,87.39
2019-04-30T23:02:33.947Z,86.80
2019-04-30T23:05:09.930Z,86.49
2019-04-30T23:07:40.640Z,86.87
2019-04-30T23:10:11.052Z,87.50
2019-04-30T23:12:41.471Z,87.72
2019-04-30T23:15:12.466Z,87.96
2019-04-30T23:17:42.977Z,88.12
2019-04-30T23:20:13.454Z,88.24
2019-04-30T23:22:43.941Z,88.16
2019-04-30T23:25:15.419Z,88.04
2019-04-30T23:27:45.859Z,87.76
2019-04-30T23:30:17.954Z,87.84
2019-04-30T23:32:48.391Z,87.98
2019-04-30T23:35:18.877Z,87.89
2019-04-30T23:37:49.362Z,87.80
2019-04-30T23:40:28.508Z,88.01
2019-04-30T23:42:59.007Z,88.28
2019-04-30T23:45:29.503Z,88.11
2019-04-30T23:48:00.027Z,88.38
2019-04-30T23:50:30.527Z,88.85
2019-04-30T23:53:01.024Z,88.44
2019-04-30T23:55:32.446Z,88.76
2019-04-30T23:58:02.918Z,88.84
